Time;durP1;ratioP1;P1;durP2;ratioP2;P2;SDS_P1;SDS_P2;PMS_P1;PMS_P2;Temp;Humidity;BMP_temperature;BMP_pressure;BME280_temperature;BME280_humidity;BME280_pressure;Samples;Min_cycle;Max_cycle;Signal;HPM_P1;HPM_P2
2021/01/23 00:00:10;;;;;;;2.42;1.92;;;1.70;99.90;;;;;;5013604;28;20302;-87
2021/01/23 00:02:36;;;;;;;2.58;2.38;;;1.60;99.90;;;;;;5015687;28;20294;-91
2021/01/23 00:05:03;;;;;;;3.95;2.35;;;1.70;99.90;;;;;;5013563;28;20354;-86
2021/01/23 00:07:30;;;;;;;2.88;1.50;;;1.70;99.90;;;;;;5013846;28;20294;-87
2021/01/23 00:09:57;;;;;;;2.90;2.03;;;1.70;99.90;;;;;;5013944;28;20366;-85
2021/01/23 00:12:24;;;;;;;2.25;2.05;;;1.60;99.90;;;;;;5014211;28;20633;-86
2021/01/23 00:14:50;;;;;;;3.17;2.08;;;1.60;99.90;;;;;;5013914;28;20211;-84
2021/01/23 00:17:16;;;;;;;7.55;4.30;;;1.60;99.90;;;;;;5012310;28;20630;-84
2021/01/23 00:19:43;;;;;;;4.13;2.15;;;1.60;99.90;;;;;;5014044;28;20291;-87
2021/01/23 00:22:09;;;;;;;4.35;2.08;;;1.60;99.90;;;;;;5013587;28;20269;-87
2021/01/23 00:24:35;;;;;;;2.10;1.63;;;1.70;99.90;;;;;;5014187;28;20259;-89
2021/01/23 00:27:03;;;;;;;2.35;1.85;;;1.70;99.90;;;;;;5013192;28;20269;-86
2021/01/23 00:29:29;;;;;;;2.67;1.90;;;1.70;99.90;;;;;;5013511;28;20258;-85
2021/01/23 00:31:56;;;;;;;8.13;3.88;;;1.60;99.90;;;;;;5013225;28;20211;-84
2021/01/23 00:34:23;;;;;;;4.32;2.88;;;1.60;99.90;;;;;;5011679;28;20282;-83
2021/01/23 00:36:49;;;;;;;8.13;3.75;;;1.70;99.90;;;;;;5013653;28;20637;-83
2021/01/23 00:39:16;;;;;;;8.90;6.03;;;1.70;99.90;;;;;;5013369;28;20284;-84
2021/01/23 00:41:42;;;;;;;9.68;6.28;;;1.60;99.90;;;;;;5013861;28;20239;-82
2021/01/23 00:44:10;;;;;;;12.07;4.97;;;1.70;99.90;;;;;;5013565;28;20299;-79
2021/01/23 00:46:36;;;;;;;7.68;4.80;;;1.60;99.90;;;;;;5012455;28;20239;-80
2021/01/23 00:49:03;;;;;;;3.47;2.50;;;1.60;99.90;;;;;;5012313;28;20204;-81
2021/01/23 00:51:29;;;;;;;3.53;1.90;;;1.60;99.90;;;;;;5013596;28;20294;-79
2021/01/23 00:53:56;;;;;;;4.15;3.00;;;1.60;99.90;;;;;;5012498;28;20314;-80
2021/01/23 00:56:22;;;;;;;3.50;3.20;;;1.60;99.90;;;;;;5013546;28;20859;-81
2021/01/23 00:58:49;;;;;;;4.10;2.47;;;1.60;99.90;;;;;;5012860;28;20209;-86
2021/01/23 01:01:16;;;;;;;5.95;4.18;;;1.60;99.90;;;;;;5017715;28;20295;-83
2021/01/23 01:03:43;;;;;;;10.77;4.65;;;1.70;99.90;;;;;;5027753;28;20311;-88
2021/01/23 01:06:09;;;;;;;4.00;3.35;;;1.60;99.90;;;;;;5033323;28;20215;-88
2021/01/23 01:08:36;;;;;;;3.85;3.40;;;1.60;99.90;;;;;;5031905;28;20203;-89
2021/01/23 01:11:02;;;;;;;3.97;3.60;;;1.70;99.90;;;;;;5032401;28;20246;-82
2021/01/23 01:13:29;;;;;;;7.70;6.03;;;1.70;99.90;;;;;;5024051;28;20211;-86
2021/01/23 01:15:55;;;;;;;4.10;3.10;;;1.60;99.90;;;;;;5016619;28;20239;-87
2021/01/23 01:18:22;;;;;;;6.10;4.10;;;1.70;99.90;;;;;;5013664;28;20640;-86
2021/01/23 01:20:49;;;;;;;5.20;4.07;;;1.80;99.90;;;;;;5013287;28;20306;-86
2021/01/23 01:23:15;;;;;;;6.80;4.60;;;1.70;99.90;;;;;;5013150;28;20199;-83
2021/01/23 01:25:42;;;;;;;7.25;4.45;;;1.60;99.90;;;;;;5013227;28;20327;-87
2021/01/23 01:28:08;;;;;;;5.38;4.72;;;1.60;99.90;;;;;;5013070;28;20290;-84
2021/01/23 01:30:34;;;;;;;6.53;4.30;;;1.60;99.90;;;;;;5013345;28;20286;-87
2021/01/23 01:33:01;;;;;;;6.10;4.22;;;1.70;99.90;;;;;;5011917;28;20361;-87
2021/01/23 01:35:28;;;;;;;4.25;2.88;;;1.70;99.90;;;;;;5012410;28;20211;-85
2021/01/23 01:37:54;;;;;;;4.40;3.47;;;1.70;99.90;;;;;;5013159;28;20692;-86
2021/01/23 01:40:21;;;;;;;2.35;1.52;;;1.70;99.90;;;;;;5013568;28;20606;-83
2021/01/23 01:42:47;;;;;;;2.70;1.75;;;1.70;99.90;;;;;;5013029;28;20250;-85
2021/01/23 01:45:14;;;;;;;4.00;3.35;;;1.70;99.90;;;;;;5013549;28;20263;-83
2021/01/23 01:47:40;;;;;;;3.53;2.88;;;1.70;99.90;;;;;;5015653;28;20738;-84
2021/01/23 01:50:08;;;;;;;3.30;2.53;;;1.70;99.90;;;;;;5017066;28;20290;-85
2021/01/23 01:52:36;;;;;;;5.80;3.35;;;1.70;99.90;;;;;;5016717;28;20286;-84
2021/01/23 01:55:03;;;;;;;4.32;2.42;;;1.70;99.90;;;;;;5016655;28;20290;-85
2021/01/23 01:57:29;;;;;;;4.97;3.83;;;1.70;99.90;;;;;;5016917;28;20208;-87
2021/01/23 01:59:56;;;;;;;2.22;1.98;;;1.70;99.90;;;;;;5016951;28;20248;-85
2021/01/23 02:02:40;;;;;;;4.47;3.47;;;1.70;99.90;;;;;;5015461;28;20202;-85
2021/01/23 02:05:17;;;;;;;4.07;3.08;;;1.70;99.90;;;;;;5016011;28;20322;-85
2021/01/23 02:07:52;;;;;;;6.32;4.55;;;1.70;99.90;;;;;;5016325;28;20264;-85
2021/01/23 02:10:27;;;;;;;5.57;3.83;;;1.70;99.90;;;;;;5016459;28;20207;-85
2021/01/23 02:13:08;;;;;;;7.57;4.47;;;1.70;99.90;;;;;;5016460;28;20207;-84
2021/01/23 02:15:42;;;;;;;8.35;5.65;;;1.70;99.90;;;;;;5016227;28;20290;-84
2021/01/23 02:18:12;;;;;;;12.25;6.40;;;1.70;99.90;;;;;;5013664;28;20208;-84
2021/01/23 02:20:54;;;;;;;7.53;5.30;;;1.70;99.90;;;;;;5016383;28;20235;-84
2021/01/23 02:23:27;;;;;;;10.10;6.15;;;1.70;99.90;;;;;;5016102;28;20562;-85
2021/01/23 02:26:02;;;;;;;8.48;5.88;;;1.70;99.90;;;;;;5016018;28;20231;-85
2021/01/23 02:29:08;;;;;;;12.15;7.20;;;1.70;99.90;;;;;;5015997;28;20685;-84
2021/01/23 02:31:39;;;;;;;7.10;6.10;;;1.70;99.90;;;;;;5010989;28;20296;-85
2021/01/23 02:34:08;;;;;;;10.40;5.80;;;1.80;99.90;;;;;;5014547;28;20208;-84
2021/01/23 02:36:36;;;;;;;8.85;6.38;;;1.80;99.90;;;;;;5015903;28;20369;-84
2021/01/23 02:39:04;;;;;;;12.30;8.75;;;1.80;99.90;;;;;;5015372;28;20235;-84
2021/01/23 02:41:31;;;;;;;9.52;6.22;;;1.80;99.90;;;;;;5015856;28;20206;-82
2021/01/23 02:43:57;;;;;;;16.65;8.75;;;1.80;99.90;;;;;;5015630;28;20207;-82
2021/01/23 02:46:24;;;;;;;16.50;10.05;;;1.80;99.90;;;;;;5015625;28;20717;-82
2021/01/23 02:48:52;;;;;;;13.90;9.05;;;1.90;99.90;;;;;;4980117;28;20235;-82
2021/01/23 02:51:27;;;;;;;13.13;7.95;;;1.90;99.90;;;;;;5015289;28;20290;-82
2021/01/23 02:54:01;;;;;;;11.60;7.35;;;1.90;99.90;;;;;;5015364;28;20622;-82
2021/01/23 02:56:30;;;;;;;9.45;5.80;;;1.70;99.90;;;;;;5015613;28;20581;-82
2021/01/23 02:59:01;;;;;;;9.32;6.82;;;1.70;99.90;;;;;;5016023;28;20306;-83
2021/01/23 03:01:30;;;;;;;12.32;6.45;;;1.70;99.90;;;;;;5016111;28;20290;-84
2021/01/23 03:04:02;;;;;;;7.25;4.75;;;1.80;99.90;;;;;;5015373;28;20270;-85
2021/01/23 03:06:29;;;;;;;5.20;2.85;;;1.70;99.90;;;;;;5017001;28;20227;-83
2021/01/23 03:08:56;;;;;;;7.75;4.65;;;1.80;99.90;;;;;;5018556;28;20288;-83
2021/01/23 03:11:22;;;;;;;7.30;4.43;;;1.80;99.90;;;;;;5022490;28;20251;-83
2021/01/23 03:13:48;;;;;;;4.00;2.80;;;1.80;99.90;;;;;;5035244;28;20207;-82
2021/01/23 03:16:15;;;;;;;4.63;3.60;;;1.80;99.90;;;;;;5038097;28;20198;-84
2021/01/23 03:18:41;;;;;;;4.22;3.50;;;1.90;99.90;;;;;;5031970;28;20226;-85
2021/01/23 03:21:09;;;;;;;6.35;3.42;;;1.80;99.90;;;;;;5017158;28;20291;-84
2021/01/23 03:23:35;;;;;;;4.30;3.65;;;1.80;99.90;;;;;;5016083;28;20271;-84
2021/01/23 03:26:01;;;;;;;3.60;3.00;;;1.70;99.90;;;;;;5017294;28;20236;-85
2021/01/23 03:28:28;;;;;;;6.00;4.20;;;1.80;99.90;;;;;;5018414;28;20637;-85
2021/01/23 03:30:54;;;;;;;4.18;3.30;;;1.80;99.90;;;;;;5023625;28;20207;-87
2021/01/23 03:33:21;;;;;;;3.90;3.15;;;1.80;99.90;;;;;;5028816;28;20204;-91
2021/01/23 03:35:47;;;;;;;3.50;2.90;;;1.80;99.90;;;;;;5031077;28;20230;-91
2021/01/23 03:38:14;;;;;;;5.53;3.17;;;1.90;99.90;;;;;;5031592;28;20263;-92
2021/01/23 03:40:41;;;;;;;8.60;3.75;;;1.90;99.90;;;;;;5026533;28;20207;-92
2021/01/23 03:43:07;;;;;;;4.60;3.90;;;1.80;99.90;;;;;;5031256;28;20219;-90
2021/01/23 03:45:34;;;;;;;4.93;3.50;;;1.90;99.90;;;;;;5021837;28;20318;-90
2021/01/23 03:48:00;;;;;;;4.00;3.15;;;1.90;99.90;;;;;;5018519;28;20286;-91
2021/01/23 03:50:28;;;;;;;5.10;3.42;;;1.90;99.90;;;;;;5016806;28;20322;-89
2021/01/23 03:52:54;;;;;;;8.55;4.70;;;1.90;99.90;;;;;;5016003;28;20218;-92
2021/01/23 03:55:21;;;;;;;5.75;4.35;;;2.00;99.90;;;;;;5015849;28;20238;-91
2021/01/23 03:57:48;;;;;;;7.22;4.18;;;2.00;99.90;;;;;;5017264;28;20223;-92
2021/01/23 04:00:15;;;;;;;5.45;3.83;;;1.90;99.90;;;;;;5016489;28;20370;-91
2021/01/23 04:02:42;;;;;;;5.03;3.88;;;1.90;99.90;;;;;;5014873;28;20275;-88
2021/01/23 04:05:09;;;;;;;5.50;4.78;;;1.90;99.90;;;;;;5014676;28;20373;-88
2021/01/23 04:07:36;;;;;;;6.47;4.40;;;2.00;99.90;;;;;;5014195;28;20286;-90
2021/01/23 04:10:04;;;;;;;6.05;4.57;;;2.00;99.90;;;;;;5014569;28;20203;-88
2021/01/23 04:12:31;;;;;;;6.00;4.07;;;2.00;99.90;;;;;;5014243;28;20211;-85
2021/01/23 04:14:58;;;;;;;7.30;4.65;;;2.00;99.90;;;;;;5013633;28;20659;-87
2021/01/23 04:17:24;;;;;;;7.57;4.40;;;2.00;99.90;;;;;;5014822;28;20200;-93
2021/01/23 04:19:54;;;;;;;5.68;5.15;;;2.00;99.90;;;;;;5017349;28;20235;-93
2021/01/23 04:22:20;;;;;;;6.82;4.72;;;2.00;99.90;;;;;;5017132;28;20188;-93
2021/01/23 04:24:47;;;;;;;7.32;4.43;;;2.00;99.90;;;;;;5025059;28;20199;-92
2021/01/23 04:27:14;;;;;;;6.90;5.05;;;2.00;99.90;;;;;;4989653;28;20210;-92
2021/01/23 04:29:41;;;;;;;6.93;4.68;;;2.00;99.90;;;;;;5016135;28;20204;-93
2021/01/23 04:32:07;;;;;;;9.63;5.28;;;2.10;99.90;;;;;;5015014;28;20211;-93
2021/01/23 04:34:34;;;;;;;7.03;6.28;;;2.10;99.90;;;;;;5014006;28;20203;-88
2021/01/23 04:37:00;;;;;;;10.18;5.90;;;2.10;99.90;;;;;;5019010;28;20271;-94
2021/01/23 04:39:27;;;;;;;6.88;5.13;;;2.10;99.90;;;;;;5017119;28;20608;-92
2021/01/23 04:41:53;;;;;;;9.95;5.85;;;2.10;99.90;;;;;;5015579;28;20286;-93
2021/01/23 04:44:20;;;;;;;10.77;6.65;;;2.10;99.90;;;;;;5015367;28;20241;-93
2021/01/23 04:46:47;;;;;;;9.10;6.45;;;2.10;99.90;;;;;;5013638;28;20322;-93
2021/01/23 04:49:14;;;;;;;10.50;7.32;;;2.10;99.90;;;;;;5014507;28;20286;-94
2021/01/23 04:51:40;;;;;;;15.43;7.00;;;2.10;99.90;;;;;;5015001;28;20329;-90
2021/01/23 04:54:06;;;;;;;17.85;7.22;;;2.20;99.90;;;;;;5014607;28;20303;-89
2021/01/23 04:56:33;;;;;;;9.77;6.30;;;2.20;99.90;;;;;;5014001;28;20208;-91
2021/01/23 04:58:59;;;;;;;9.88;5.72;;;2.10;99.90;;;;;;5014459;28;20399;-89
2021/01/23 05:01:25;;;;;;;9.85;6.05;;;2.10;99.90;;;;;;5012620;28;20203;-88
2021/01/23 05:03:58;;;;;;;6.45;4.80;;;2.10;99.90;;;;;;5012462;28;20665;-88
2021/01/23 05:06:26;;;;;;;6.22;4.57;;;2.10;99.90;;;;;;5013447;28;20232;-87
2021/01/23 05:08:52;;;;;;;8.00;4.97;;;2.10;99.90;;;;;;5013989;28;20290;-86
2021/01/23 05:11:19;;;;;;;8.52;5.57;;;2.10;99.90;;;;;;5015362;28;20226;-86
2021/01/23 05:14:10;;;;;;;9.98;5.63;;;2.10;99.90;;;;;;5014131;28;20290;-86
2021/01/23 05:16:38;;;;;;;9.45;6.35;;;2.10;99.90;;;;;;5014158;28;20702;-89
2021/01/23 05:19:06;;;;;;;9.27;6.50;;;2.10;99.90;;;;;;5031252;28;20219;-87
2021/01/23 05:21:33;;;;;;;9.50;6.85;;;2.10;99.90;;;;;;5033371;28;20203;-84
2021/01/23 05:24:07;;;;;;;6.80;4.55;;;2.10;99.90;;;;;;5014507;28;20203;-85
2021/01/23 05:26:34;;;;;;;8.30;5.80;;;2.10;99.90;;;;;;5020636;28;20314;-84
2021/01/23 05:29:09;;;;;;;10.57;7.00;;;2.10;99.90;;;;;;5025651;28;20264;-84
2021/01/23 05:31:35;;;;;;;7.35;5.93;;;2.10;99.90;;;;;;5017008;28;20242;-85
2021/01/23 05:34:02;;;;;;;11.43;5.80;;;2.10;99.90;;;;;;4997328;28;20290;-88
2021/01/23 05:36:41;;;;;;;10.40;7.50;;;2.10;99.90;;;;;;4994094;28;20280;-88
2021/01/23 05:39:07;;;;;;;10.15;6.30;;;2.20;99.90;;;;;;4991857;28;20703;-88
2021/01/23 05:41:33;;;;;;;11.05;6.95;;;2.20;99.90;;;;;;4994182;28;20234;-85
2021/01/23 05:44:01;;;;;;;11.80;6.07;;;2.20;99.90;;;;;;5004997;28;20203;-88
2021/01/23 05:46:31;;;;;;;9.05;6.70;;;2.20;99.90;;;;;;5012846;28;20698;-91
2021/01/23 05:48:58;;;;;;;12.55;7.15;;;2.20;99.90;;;;;;5011694;28;20568;-87
2021/01/23 05:51:25;;;;;;;13.07;7.95;;;2.10;99.90;;;;;;5008826;28;20230;-88
2021/01/23 05:53:53;;;;;;;10.70;7.20;;;2.10;99.90;;;;;;5013064;28;20242;-90
2021/01/23 05:56:19;;;;;;;10.93;8.00;;;2.10;99.90;;;;;;5012829;28;20655;-88
2021/01/23 05:58:47;;;;;;;9.88;7.47;;;2.20;99.90;;;;;;5010041;28;20215;-89
2021/01/23 06:01:15;;;;;;;11.95;6.85;;;2.20;99.90;;;;;;5012620;28;20235;-89
2021/01/23 06:03:43;;;;;;;10.10;6.85;;;2.10;99.90;;;;;;5011618;28;20214;-89
2021/01/23 06:06:10;;;;;;;11.77;6.82;;;2.20;99.90;;;;;;5018943;28;20307;-88
2021/01/23 06:08:38;;;;;;;11.15;6.93;;;2.20;99.90;;;;;;5013437;28;20298;-88
2021/01/23 06:11:06;;;;;;;13.57;7.47;;;2.20;99.90;;;;;;5012845;28;20210;-88
2021/01/23 06:13:39;;;;;;;11.93;6.30;;;2.20;99.90;;;;;;5011429;28;20290;-89
2021/01/23 06:16:06;;;;;;;8.93;6.38;;;2.10;99.90;;;;;;5012542;28;20207;-87
2021/01/23 06:18:33;;;;;;;11.63;5.45;;;2.20;99.90;;;;;;5011610;28;20215;-87
2021/01/23 06:21:02;;;;;;;10.55;6.60;;;2.10;99.90;;;;;;5012794;28;20238;-88
2021/01/23 06:23:49;;;;;;;6.57;4.63;;;2.10;99.90;;;;;;5012685;28;20283;-87
2021/01/23 06:26:18;;;;;;;6.90;4.93;;;2.10;99.90;;;;;;5012779;28;20235;-90
2021/01/23 06:28:54;;;;;;;6.70;5.15;;;2.10;99.90;;;;;;5012792;28;20294;-86
2021/01/23 06:31:28;;;;;;;8.15;5.55;;;2.10;99.90;;;;;;5012522;28;20278;-90
2021/01/23 06:33:55;;;;;;;7.40;5.78;;;2.10;99.90;;;;;;4981639;28;20206;-93
2021/01/23 06:36:22;;;;;;;7.00;5.32;;;2.10;99.90;;;;;;5016506;28;20208;-90
2021/01/23 06:39:07;;;;;;;13.07;5.50;;;2.10;99.90;;;;;;5015881;28;20326;-90
2021/01/23 06:41:36;;;;;;;8.05;7.00;;;2.10;99.90;;;;;;5016240;28;20295;-93
2021/01/23 06:44:10;;;;;;;11.60;7.15;;;2.10;99.90;;;;;;5016432;28;20209;-90
2021/01/23 06:46:38;;;;;;;10.18;7.60;;;2.10;99.90;;;;;;5015965;28;20322;-88
2021/01/23 06:49:05;;;;;;;7.35;5.75;;;2.00;99.90;;;;;;4980547;28;20334;-86
2021/01/23 06:51:32;;;;;;;8.73;6.65;;;2.00;99.90;;;;;;5015517;28;20199;-87
2021/01/23 06:54:17;;;;;;;5.57;5.07;;;2.10;99.90;;;;;;5015657;28;20215;-86
2021/01/23 06:56:47;;;;;;;12.00;6.28;;;2.00;99.90;;;;;;5015561;28;20436;-88
2021/01/23 06:59:23;;;;;;;7.93;5.78;;;2.00;99.90;;;;;;5015551;28;20371;-88
2021/01/23 07:01:57;;;;;;;7.43;5.10;;;2.00;99.90;;;;;;5015114;28;20250;-84
2021/01/23 07:04:23;;;;;;;7.80;5.63;;;2.00;99.90;;;;;;5012978;28;20266;-88
2021/01/23 07:06:50;;;;;;;6.05;4.30;;;2.00;99.90;;;;;;4993532;28;20731;-89
2021/01/23 07:09:16;;;;;;;5.20;4.15;;;2.00;99.90;;;;;;4993960;28;20242;-91
2021/01/23 07:11:44;;;;;;;5.03;4.55;;;2.10;99.90;;;;;;4995890;28;20292;-92
2021/01/23 07:14:12;;;;;;;6.43;4.28;;;2.10;99.90;;;;;;4994765;28;20667;-93
2021/01/23 07:16:40;;;;;;;4.93;4.43;;;2.10;99.90;;;;;;4995118;28;20236;-91
2021/01/23 07:19:08;;;;;;;4.88;4.25;;;2.10;99.90;;;;;;4994035;28;20208;-93
2021/01/23 07:21:39;;;;;;;7.00;4.50;;;2.10;99.90;;;;;;4994513;28;20238;-92
2021/01/23 07:24:07;;;;;;;5.82;3.78;;;2.10;99.90;;;;;;4998083;28;20211;-89
2021/01/23 07:26:35;;;;;;;6.53;3.67;;;2.20;99.90;;;;;;5016429;28;20238;-92
2021/01/23 07:29:03;;;;;;;4.63;4.18;;;2.20;99.90;;;;;;5016432;28;20393;-91
2021/01/23 07:31:31;;;;;;;5.32;4.32;;;2.10;99.90;;;;;;5015704;28;20295;-92
2021/01/23 07:34:00;;;;;;;6.40;4.30;;;2.10;99.90;;;;;;5014657;28;20211;-92
2021/01/23 07:36:31;;;;;;;4.85;3.60;;;2.20;99.90;;;;;;5015798;28;20291;-92
2021/01/23 07:38:59;;;;;;;8.05;4.00;;;2.20;99.90;;;;;;5015746;28;20319;-91
2021/01/23 07:41:29;;;;;;;5.18;4.35;;;2.30;99.90;;;;;;5014920;28;20211;-92
2021/01/23 07:43:57;;;;;;;5.55;4.15;;;2.30;99.90;;;;;;5014688;28;20305;-91
2021/01/23 07:46:24;;;;;;;6.13;4.10;;;2.30;99.90;;;;;;5015728;28;20313;-88
2021/01/23 07:48:51;;;;;;;4.85;4.20;;;2.30;99.90;;;;;;5014534;28;20290;-90
2021/01/23 07:51:25;;;;;;;4.97;4.10;;;2.40;99.90;;;;;;5016607;28;20187;-93
2021/01/23 07:54:11;;;;;;;6.47;4.35;;;2.40;99.90;;;;;;5016980;28;20199;-92
2021/01/23 07:56:49;;;;;;;5.35;4.68;;;2.50;99.90;;;;;;5016881;28;20191;-91
2021/01/23 07:59:16;;;;;;;5.97;4.72;;;2.40;99.90;;;;;;5015165;28;20293;-88
2021/01/23 08:01:43;;;;;;;5.88;4.38;;;2.50;99.90;;;;;;5015320;28;20210;-91
2021/01/23 08:04:33;;;;;;;6.65;4.50;;;2.50;99.90;;;;;;5013678;28;20206;-86
2021/01/23 08:07:19;;;;;;;11.27;6.28;;;2.60;99.90;;;;;;5014285;28;20643;-90
2021/01/23 08:09:46;;;;;;;13.77;6.25;;;2.60;99.90;;;;;;5019737;28;20271;-89
2021/01/23 08:12:19;;;;;;;15.55;9.30;;;2.70;99.90;;;;;;5016271;28;20636;-92
2021/01/23 08:14:53;;;;;;;12.50;6.65;;;2.70;99.90;;;;;;5014302;28;20698;-93
2021/01/23 08:17:21;;;;;;;6.38;4.85;;;3.10;99.90;;;;;;5021282;28;20208;-89
2021/01/23 08:19:54;;;;;;;6.32;4.45;;;3.00;99.90;;;;;;5024371;28;20254;-85
2021/01/23 08:22:32;;;;;;;6.30;4.72;;;3.00;99.90;;;;;;5009666;28;20183;-90
2021/01/23 08:24:58;;;;;;;7.63;4.70;;;3.00;99.90;;;;;;5017066;28;20249;-89
2021/01/23 08:27:26;;;;;;;7.53;5.13;;;3.00;99.90;;;;;;5014420;28;20270;-89
2021/01/23 08:29:52;;;;;;;8.73;4.95;;;3.00;99.90;;;;;;5013918;28;20212;-87
2021/01/23 08:32:20;;;;;;;12.27;7.63;;;3.00;99.90;;;;;;5014344;28;20634;-87
2021/01/23 08:34:46;;;;;;;15.63;7.38;;;3.00;99.90;;;;;;5013758;28;20290;-86
2021/01/23 08:37:13;;;;;;;12.88;6.55;;;3.00;99.90;;;;;;5014823;28;20227;-85
2021/01/23 08:39:48;;;;;;;10.38;6.00;;;3.10;99.90;;;;;;5014124;28;20331;-84
2021/01/23 08:42:15;;;;;;;8.07;6.30;;;3.20;99.90;;;;;;5014054;28;20300;-83
2021/01/23 08:44:42;;;;;;;8.70;5.15;;;3.20;99.90;;;;;;5013901;28;20199;-83
2021/01/23 08:47:08;;;;;;;7.80;5.30;;;3.20;99.90;;;;;;5013924;28;20322;-84
2021/01/23 08:49:36;;;;;;;9.60;4.38;;;3.20;99.90;;;;;;4930141;28;20208;-83
2021/01/23 08:52:02;;;;;;;7.80;5.00;;;3.30;99.90;;;;;;5013577;28;20208;-84
2021/01/23 08:54:29;;;;;;;5.13;4.35;;;3.30;99.90;;;;;;5013240;28;20211;-86
2021/01/23 08:56:55;;;;;;;4.55;4.15;;;3.20;99.90;;;;;;5014052;28;20214;-86
2021/01/23 08:59:21;;;;;;;4.10;3.70;;;3.40;99.90;;;;;;5016831;28;20234;-86
2021/01/23 09:01:48;;;;;;;4.82;3.95;;;3.60;99.90;;;;;;5013857;28;20387;-86
2021/01/23 09:04:14;;;;;;;4.53;4.13;;;3.70;99.90;;;;;;5012831;28;20203;-86
2021/01/23 09:06:43;;;;;;;7.63;4.75;;;3.80;99.90;;;;;;5012813;28;20255;-85
2021/01/23 09:09:10;;;;;;;5.00;4.40;;;3.70;99.90;;;;;;5013623;28;20214;-85
2021/01/23 09:11:38;;;;;;;4.32;3.65;;;3.80;99.90;;;;;;5012388;28;20242;-87
2021/01/23 09:14:04;;;;;;;6.32;3.83;;;3.80;99.90;;;;;;5013995;28;20659;-84
2021/01/23 09:16:31;;;;;;;3.97;3.58;;;3.80;99.90;;;;;;5014192;28;20298;-84
2021/01/23 09:18:58;;;;;;;5.35;3.33;;;3.80;99.90;;;;;;5012694;28;20208;-86
2021/01/23 09:21:24;;;;;;;7.07;3.45;;;3.70;99.90;;;;;;5012858;28;20698;-86
2021/01/23 09:23:51;;;;;;;7.15;4.53;;;3.70;99.90;;;;;;5014044;28;20263;-87
2021/01/23 09:26:18;;;;;;;4.97;4.50;;;3.60;99.90;;;;;;5014341;28;20266;-86
2021/01/23 09:28:44;;;;;;;4.78;3.90;;;3.70;99.90;;;;;;5014377;28;20235;-87
2021/01/23 09:31:11;;;;;;;9.65;6.20;;;3.60;99.90;;;;;;5034486;28;20227;-89
2021/01/23 09:33:41;;;;;;;6.20;4.75;;;3.70;99.90;;;;;;5035333;28;20219;-89
2021/01/23 09:36:08;;;;;;;5.60;4.43;;;3.70;99.90;;;;;;5032918;28;20226;-86
2021/01/23 09:38:34;;;;;;;6.18;3.88;;;3.80;99.90;;;;;;5035884;28;20243;-85
2021/01/23 09:41:02;;;;;;;5.35;4.10;;;3.90;99.90;;;;;;5036905;28;20242;-88
2021/01/23 09:43:28;;;;;;;7.45;4.05;;;4.00;99.90;;;;;;5035816;28;20544;-82
2021/01/23 09:45:54;;;;;;;4.45;3.58;;;4.00;99.90;;;;;;5019926;28;20258;-87
2021/01/23 09:48:21;;;;;;;4.13;3.47;;;4.10;99.90;;;;;;5023583;28;20196;-90
2021/01/23 09:50:48;;;;;;;4.97;3.50;;;4.10;99.90;;;;;;5015530;28;20288;-90
2021/01/23 09:53:14;;;;;;;3.03;2.78;;;4.20;99.90;;;;;;5013914;28;20294;-88
2021/01/23 09:55:42;;;;;;;3.00;2.38;;;4.30;99.90;;;;;;5015546;28;20613;-91
2021/01/23 09:58:09;;;;;;;3.47;2.80;;;4.40;99.90;;;;;;5021619;28;20203;-93
2021/01/23 10:00:37;;;;;;;2.30;2.20;;;4.50;99.90;;;;;;5015561;28;20625;-88
2021/01/23 10:03:04;;;;;;;2.65;2.45;;;4.50;99.90;;;;;;5012052;28;20199;-88
2021/01/23 10:05:31;;;;;;;3.65;3.10;;;4.50;99.90;;;;;;5014653;28;20238;-91
2021/01/23 10:07:58;;;;;;;5.28;2.83;;;4.70;99.90;;;;;;5021159;28;20215;-86
2021/01/23 10:10:25;;;;;;;3.25;3.00;;;4.70;99.90;;;;;;5023476;28;20274;-93
2021/01/23 10:12:52;;;;;;;2.80;2.60;;;4.70;99.90;;;;;;5021585;28;20212;-92
2021/01/23 10:15:19;;;;;;;4.28;3.10;;;4.60;99.90;;;;;;5020957;28;20238;-91
2021/01/23 10:17:46;;;;;;;4.05;3.00;;;4.60;99.90;;;;;;5017653;28;20295;-92
2021/01/23 10:20:14;;;;;;;5.03;2.83;;;4.70;99.90;;;;;;5018742;28;20301;-91
2021/01/23 10:22:40;;;;;;;3.25;2.80;;;4.60;99.90;;;;;;5019068;28;20231;-91
2021/01/23 10:25:07;;;;;;;2.22;2.00;;;4.80;99.90;;;;;;5017485;28;20785;-85
2021/01/23 10:27:33;;;;;;;2.83;2.53;;;5.10;99.90;;;;;;5017459;28;20362;-84
2021/01/23 10:30:00;;;;;;;2.50;2.30;;;4.90;99.90;;;;;;5017228;28;20291;-84
2021/01/23 10:32:27;;;;;;;3.75;2.88;;;5.00;99.90;;;;;;5004721;28;20266;-85
2021/01/23 10:34:53;;;;;;;2.53;2.28;;;5.00;99.90;;;;;;4997290;28;20597;-87
2021/01/23 10:37:20;;;;;;;2.22;2.10;;;5.00;99.90;;;;;;4998113;28;20326;-92
2021/01/23 10:39:46;;;;;;;3.90;3.13;;;5.10;99.90;;;;;;4997628;28;20295;-87
2021/01/23 10:42:13;;;;;;;3.25;2.70;;;4.90;99.90;;;;;;4998694;28;20251;-90
2021/01/23 10:44:40;;;;;;;4.05;3.00;;;4.80;99.90;;;;;;4999645;28;20227;-85
2021/01/23 10:47:07;;;;;;;3.33;3.13;;;4.80;99.90;;;;;;4997778;28;20243;-85
2021/01/23 10:49:36;;;;;;;2.88;2.60;;;4.80;99.90;;;;;;5000296;28;20205;-87
2021/01/23 10:52:02;;;;;;;4.82;2.70;;;4.90;99.90;;;;;;4996807;28;20295;-88
2021/01/23 10:54:29;;;;;;;3.13;2.92;;;5.10;99.90;;;;;;4996410;28;20227;-87
2021/01/23 10:56:55;;;;;;;3.08;2.42;;;5.20;99.90;;;;;;4996479;28;20295;-87
2021/01/23 10:59:22;;;;;;;8.07;3.90;;;5.30;99.90;;;;;;4996713;28;20295;-89
2021/01/23 11:01:48;;;;;;;5.80;3.03;;;5.40;99.90;;;;;;5005046;28;20750;-89
2021/01/23 11:04:15;;;;;;;3.80;2.97;;;5.50;99.90;;;;;;5017870;28;20286;-91
2021/01/23 11:06:43;;;;;;;3.80;2.88;;;5.70;99.90;;;;;;5016515;28;20595;-92
2021/01/23 11:09:10;;;;;;;5.90;3.03;;;5.70;99.90;;;;;;5014833;28;20212;-90
2021/01/23 11:12:01;;;;;;;6.78;4.45;;;5.60;99.90;;;;;;5017473;28;20285;-88
2021/01/23 11:14:27;;;;;;;5.43;2.63;;;5.90;99.90;;;;;;5010952;28;20583;-88
2021/01/23 11:16:53;;;;;;;3.40;2.87;;;5.90;99.90;;;;;;5017101;28;20247;-83
2021/01/23 11:19:20;;;;;;;3.57;2.80;;;5.90;99.90;;;;;;5014704;28;21049;-84
2021/01/23 11:21:48;;;;;;;3.07;2.77;;;5.80;99.90;;;;;;5016336;28;20454;-83
2021/01/23 11:24:15;;;;;;;3.17;2.00;;;5.70;99.90;;;;;;5016413;28;20482;-83
2021/01/23 11:26:41;;;;;;;4.60;2.17;;;5.60;99.90;;;;;;5015583;28;20720;-83
2021/01/23 11:29:07;;;;;;;2.10;1.80;;;5.70;99.90;;;;;;5016259;28;20531;-83
2021/01/23 11:31:34;;;;;;;4.90;2.10;;;5.90;99.90;;;;;;5015875;28;20558;-84
2021/01/23 11:34:00;;;;;;;3.07;2.20;;;5.80;99.90;;;;;;5014475;28;20545;-86
2021/01/23 11:36:27;;;;;;;2.30;2.10;;;5.90;99.90;;;;;;5015202;28;20557;-84
2021/01/23 11:38:56;;;;;;;7.77;4.37;;;6.00;99.90;;;;;;5015110;28;20318;-83
2021/01/23 11:41:22;;;;;;;10.00;5.18;;;5.90;99.90;;;;;;5014789;28;20507;-82
2021/01/23 11:43:49;;;;;;;6.23;5.07;;;6.00;99.90;;;;;;5015012;28;20207;-85
2021/01/23 11:46:16;;;;;;;5.60;3.15;;;5.90;99.90;;;;;;5015214;28;20493;-85
2021/01/23 11:48:42;;;;;;;2.80;2.40;;;5.90;99.90;;;;;;5014004;28;20290;-88
2021/01/23 11:51:09;;;;;;;7.83;3.17;;;5.80;99.90;;;;;;5015054;28;20532;-87
2021/01/23 11:53:35;;;;;;;2.93;2.13;;;5.70;99.90;;;;;;5015048;28;20454;-85
2021/01/23 11:56:02;;;;;;;3.30;3.00;;;5.70;99.90;;;;;;5015036;28;20486;-86
2021/01/23 11:58:29;;;;;;;2.23;2.03;;;5.70;99.90;;;;;;5014942;28;20674;-85
2021/01/23 12:00:55;;;;;;;4.10;3.50;;;5.80;99.90;;;;;;5014814;28;20466;-85
2021/01/23 12:03:22;;;;;;;4.18;3.78;;;5.80;99.90;;;;;;5013607;28;20236;-85
2021/01/23 12:05:48;;;;;;;4.45;3.30;;;5.80;99.90;;;;;;4979747;28;20314;-89
2021/01/23 12:08:14;;;;;;;3.08;2.88;;;5.90;99.90;;;;;;5015403;28;20298;-85
2021/01/23 12:10:41;;;;;;;4.57;4.22;;;5.90;99.90;;;;;;5014883;28;20238;-87
2021/01/23 12:13:08;;;;;;;2.47;2.28;;;6.10;99.90;;;;;;5014712;28;20300;-87
2021/01/23 12:15:34;;;;;;;3.53;3.13;;;6.00;99.90;;;;;;5014796;28;20294;-85
2021/01/23 12:18:01;;;;;;;7.50;3.70;;;6.00;99.90;;;;;;5013356;28;20290;-86
2021/01/23 12:20:28;;;;;;;3.13;2.83;;;6.10;99.90;;;;;;5014581;28;20274;-86
2021/01/23 12:22:54;;;;;;;2.57;2.30;;;6.30;99.90;;;;;;5014598;28;20255;-86
2021/01/23 12:25:21;;;;;;;3.10;2.15;;;6.20;99.90;;;;;;5014542;28;20520;-88
2021/01/23 12:27:47;;;;;;;6.20;3.58;;;6.20;99.90;;;;;;5014679;28;20670;-87
2021/01/23 12:30:16;;;;;;;4.00;3.27;;;6.20;99.90;;;;;;5013891;28;20661;-86
2021/01/23 12:32:42;;;;;;;5.47;3.72;;;6.20;99.90;;;;;;4969051;28;21482;-86
2021/01/23 12:35:11;;;;;;;4.55;3.15;;;6.40;99.90;;;;;;4973392;28;20839;-86
2021/01/23 12:37:38;;;;;;;4.50;3.20;;;6.40;99.90;;;;;;4972584;28;20836;-87
2021/01/23 12:40:06;;;;;;;3.67;3.20;;;6.40;99.90;;;;;;4974349;28;20825;-87
2021/01/23 12:42:32;;;;;;;2.70;2.50;;;6.30;99.90;;;;;;4973710;28;20895;-87
2021/01/23 12:44:59;;;;;;;3.10;2.80;;;6.30;99.90;;;;;;4973159;28;20456;-87
2021/01/23 12:47:27;;;;;;;3.93;2.60;;;6.40;99.90;;;;;;4972856;28;20547;-86
2021/01/23 12:49:53;;;;;;;2.97;2.77;;;6.50;99.90;;;;;;4973445;28;20460;-87
2021/01/23 12:52:19;;;;;;;7.97;2.90;;;6.50;99.90;;;;;;4973645;28;20460;-86
2021/01/23 12:54:46;;;;;;;3.33;2.70;;;6.50;99.90;;;;;;4974173;28;20891;-86
2021/01/23 12:57:12;;;;;;;3.30;3.00;;;6.60;99.90;;;;;;4992910;28;21109;-88
2021/01/23 12:59:38;;;;;;;3.50;3.03;;;6.30;99.90;;;;;;5014286;28;20512;-88